sensor_id;sensor_type;location;lat;lon;timestamp;P1;durP1;ratioP1;P2;durP2;ratioP2
13230;SDS011;6681;53.254;10.398;2022-12-07T00:01:06;22.27;;;14.97;;
13230;SDS011;6681;53.254;10.398;2022-12-07T00:03:32;24.80;;;15.87;;
13230;SDS011;6681;53.254;10.398;2022-12-07T00:05:58;19.87;;;14.40;;
13230;SDS011;6681;53.254;10.398;2022-12-07T00:08:24;19.87;;;15.03;;
13230;SDS011;6681;53.254;10.398;2022-12-07T00:10:50;22.33;;;15.53;;
13230;SDS011;6681;53.254;10.398;2022-12-07T00:13:16;20.23;;;13.33;;
13230;SDS011;6681;53.254;10.398;2022-12-07T00:15:41;22.47;;;15.20;;
13230;SDS011;6681;53.254;10.398;2022-12-07T00:18:07;19.70;;;14.00;;
13230;SDS011;6681;53.254;10.398;2022-12-07T00:20:33;22.07;;;15.17;;
13230;SDS011;6681;53.254;10.398;2022-12-07T00:22:59;19.13;;;13.83;;
13230;SDS011;6681;53.254;10.398;2022-12-07T00:25:24;17.57;;;13.10;;
13230;SDS011;6681;53.254;10.398;2022-12-07T00:27:51;20.90;;;14.10;;
13230;SDS011;6681;53.254;10.398;2022-12-07T00:30:18;19.20;;;13.70;;
13230;SDS011;6681;53.254;10.398;2022-12-07T00:32:44;19.63;;;13.97;;
13230;SDS011;6681;53.254;10.398;2022-12-07T00:35:09;18.37;;;13.13;;
13230;SDS011;6681;53.254;10.398;2022-12-07T00:37:35;18.70;;;13.67;;
13230;SDS011;6681;53.254;10.398;2022-12-07T00:40:01;18.83;;;13.97;;
13230;SDS011;6681;53.254;10.398;2022-12-07T00:42:26;20.67;;;12.77;;
13230;SDS011;6681;53.254;10.398;2022-12-07T00:44:52;18.03;;;13.93;;
13230;SDS011;6681;53.254;10.398;2022-12-07T00:47:17;22.57;;;13.57;;
13230;SDS011;6681;53.254;10.398;2022-12-07T00:49:43;22.20;;;15.00;;
13230;SDS011;6681;53.254;10.398;2022-12-07T00:52:08;23.93;;;14.90;;
13230;SDS011;6681;53.254;10.398;2022-12-07T00:54:34;20.03;;;13.83;;
13230;SDS011;6681;53.254;10.398;2022-12-07T00:57:00;23.60;;;14.17;;
13230;SDS011;6681;53.254;10.398;2022-12-07T00:59:25;19.37;;;14.17;;
13230;SDS011;6681;53.254;10.398;2022-12-07T01:01:51;22.63;;;15.00;;
13230;SDS011;6681;53.254;10.398;2022-12-07T01:04:16;17.67;;;13.60;;
13230;SDS011;6681;53.254;10.398;2022-12-07T01:06:42;25.63;;;15.73;;
13230;SDS011;6681;53.254;10.398;2022-12-07T01:09:08;27.90;;;16.13;;
13230;SDS011;6681;53.254;10.398;2022-12-07T01:11:33;24.00;;;15.63;;
13230;SDS011;6681;53.254;10.398;2022-12-07T01:13:59;23.67;;;14.40;;
13230;SDS011;6681;53.254;10.398;2022-12-07T01:16:27;23.03;;;13.37;;
13230;SDS011;6681;53.254;10.398;2022-12-07T01:18:54;19.67;;;12.80;;
13230;SDS011;6681;53.254;10.398;2022-12-07T01:21:28;21.40;;;13.17;;
13230;SDS011;6681;53.254;10.398;2022-12-07T01:23:57;22.20;;;13.40;;
13230;SDS011;6681;53.254;10.398;2022-12-07T01:26:24;20.50;;;14.13;;
13230;SDS011;6681;53.254;10.398;2022-12-07T01:28:50;21.07;;;14.07;;
13230;SDS011;6681;53.254;10.398;2022-12-07T01:31:17;26.03;;;14.70;;
13230;SDS011;6681;53.254;10.398;2022-12-07T01:33:46;18.43;;;13.77;;
13230;SDS011;6681;53.254;10.398;2022-12-07T01:38:40;22.43;;;13.67;;
13230;SDS011;6681;53.254;10.398;2022-12-07T01:41:06;20.57;;;13.53;;
13230;SDS011;6681;53.254;10.398;2022-12-07T01:43:32;23.77;;;13.97;;
13230;SDS011;6681;53.254;10.398;2022-12-07T01:45:59;24.87;;;16.23;;
13230;SDS011;6681;53.254;10.398;2022-12-07T01:48:43;18.90;;;13.07;;
13230;SDS011;6681;53.254;10.398;2022-12-07T01:51:09;19.50;;;11.83;;
13230;SDS011;6681;53.254;10.398;2022-12-07T01:53:42;20.50;;;14.00;;
13230;SDS011;6681;53.254;10.398;2022-12-07T01:56:10;20.03;;;12.93;;
13230;SDS011;6681;53.254;10.398;2022-12-07T01:58:42;18.57;;;13.27;;
13230;SDS011;6681;53.254;10.398;2022-12-07T02:01:08;20.07;;;13.57;;
13230;SDS011;6681;53.254;10.398;2022-12-07T02:03:34;19.23;;;13.07;;
13230;SDS011;6681;53.254;10.398;2022-12-07T02:06:04;22.40;;;13.47;;
13230;SDS011;6681;53.254;10.398;2022-12-07T02:08:31;18.07;;;12.03;;
13230;SDS011;6681;53.254;10.398;2022-12-07T02:10:57;21.20;;;13.23;;
13230;SDS011;6681;53.254;10.398;2022-12-07T02:13:24;16.30;;;12.43;;
13230;SDS011;6681;53.254;10.398;2022-12-07T02:18:52;19.77;;;12.40;;
13230;SDS011;6681;53.254;10.398;2022-12-07T02:21:51;23.33;;;13.37;;
13230;SDS011;6681;53.254;10.398;2022-12-07T02:30:00;21.37;;;13.33;;
13230;SDS011;6681;53.254;10.398;2022-12-07T02:32:48;19.73;;;12.10;;
13230;SDS011;6681;53.254;10.398;2022-12-07T02:41:10;19.80;;;12.63;;
13230;SDS011;6681;53.254;10.398;2022-12-07T02:46:47;19.97;;;12.97;;
13230;SDS011;6681;53.254;10.398;2022-12-07T02:49:27;17.73;;;11.60;;
13230;SDS011;6681;53.254;10.398;2022-12-07T02:51:55;17.10;;;10.40;;
13230;SDS011;6681;53.254;10.398;2022-12-07T02:54:21;16.03;;;11.40;;
13230;SDS011;6681;53.254;10.398;2022-12-07T03:08:24;16.83;;;9.10;;
13230;SDS011;6681;53.254;10.398;2022-12-07T03:11:09;11.47;;;7.90;;
13230;SDS011;6681;53.254;10.398;2022-12-07T03:16:22;14.93;;;8.93;;
13230;SDS011;6681;53.254;10.398;2022-12-07T03:18:58;14.00;;;7.67;;
13230;SDS011;6681;53.254;10.398;2022-12-07T03:21:27;9.33;;;6.33;;
13230;SDS011;6681;53.254;10.398;2022-12-07T03:23:59;17.47;;;7.40;;
13230;SDS011;6681;53.254;10.398;2022-12-07T03:26:30;13.63;;;7.60;;
13230;SDS011;6681;53.254;10.398;2022-12-07T03:29:01;14.13;;;7.30;;
13230;SDS011;6681;53.254;10.398;2022-12-07T03:31:33;10.80;;;6.00;;
13230;SDS011;6681;53.254;10.398;2022-12-07T03:36:37;9.17;;;5.27;;
13230;SDS011;6681;53.254;10.398;2022-12-07T03:39:23;13.63;;;6.67;;
13230;SDS011;6681;53.254;10.398;2022-12-07T03:41:52;11.80;;;6.37;;
13230;SDS011;6681;53.254;10.398;2022-12-07T03:44:19;10.47;;;6.23;;
13230;SDS011;6681;53.254;10.398;2022-12-07T03:47:47;13.80;;;7.20;;
13230;SDS011;6681;53.254;10.398;2022-12-07T03:49:49;12.47;;;8.17;;
13230;SDS011;6681;53.254;10.398;2022-12-07T03:52:55;9.20;;;6.00;;
13230;SDS011;6681;53.254;10.398;2022-12-07T03:55:26;10.77;;;6.43;;
13230;SDS011;6681;53.254;10.398;2022-12-07T03:57:57;9.57;;;5.80;;
13230;SDS011;6681;53.254;10.398;2022-12-07T04:00:25;10.07;;;6.20;;
13230;SDS011;6681;53.254;10.398;2022-12-07T04:02:52;9.33;;;4.53;;
13230;SDS011;6681;53.254;10.398;2022-12-07T04:05:18;9.67;;;5.27;;
13230;SDS011;6681;53.254;10.398;2022-12-07T04:07:43;8.77;;;5.03;;
13230;SDS011;6681;53.254;10.398;2022-12-07T04:10:09;12.53;;;4.63;;
13230;SDS011;6681;53.254;10.398;2022-12-07T04:12:35;5.77;;;3.70;;
13230;SDS011;6681;53.254;10.398;2022-12-07T04:15:01;9.23;;;4.70;;
13230;SDS011;6681;53.254;10.398;2022-12-07T04:17:27;9.83;;;5.17;;
13230;SDS011;6681;53.254;10.398;2022-12-07T04:19:53;12.17;;;5.63;;
13230;SDS011;6681;53.254;10.398;2022-12-07T04:22:19;7.73;;;4.80;;
13230;SDS011;6681;53.254;10.398;2022-12-07T04:24:44;6.77;;;4.40;;
13230;SDS011;6681;53.254;10.398;2022-12-07T04:27:10;7.47;;;4.93;;
13230;SDS011;6681;53.254;10.398;2022-12-07T04:29:35;8.93;;;5.10;;
13230;SDS011;6681;53.254;10.398;2022-12-07T04:32:01;9.07;;;4.83;;
13230;SDS011;6681;53.254;10.398;2022-12-07T04:34:27;7.20;;;4.27;;
13230;SDS011;6681;53.254;10.398;2022-12-07T04:36:52;9.63;;;4.93;;
13230;SDS011;6681;53.254;10.398;2022-12-07T04:39:19;6.87;;;3.43;;
13230;SDS011;6681;53.254;10.398;2022-12-07T04:41:55;8.80;;;4.60;;
13230;SDS011;6681;53.254;10.398;2022-12-07T04:44:21;7.70;;;4.20;;
13230;SDS011;6681;53.254;10.398;2022-12-07T04:46:49;6.70;;;4.40;;
13230;SDS011;6681;53.254;10.398;2022-12-07T04:49:15;9.00;;;4.17;;
13230;SDS011;6681;53.254;10.398;2022-12-07T04:51:41;5.67;;;3.77;;
13230;SDS011;6681;53.254;10.398;2022-12-07T04:54:07;8.00;;;4.90;;
13230;SDS011;6681;53.254;10.398;2022-12-07T04:56:33;7.27;;;4.03;;
13230;SDS011;6681;53.254;10.398;2022-12-07T04:59:02;7.63;;;3.60;;
13230;SDS011;6681;53.254;10.398;2022-12-07T05:01:28;6.73;;;4.20;;
13230;SDS011;6681;53.254;10.398;2022-12-07T05:03:54;11.30;;;4.13;;
13230;SDS011;6681;53.254;10.398;2022-12-07T05:06:20;9.60;;;3.70;;
13230;SDS011;6681;53.254;10.398;2022-12-07T05:08:46;9.60;;;3.53;;
13230;SDS011;6681;53.254;10.398;2022-12-07T05:11:12;8.27;;;3.90;;
13230;SDS011;6681;53.254;10.398;2022-12-07T05:13:56;6.43;;;3.40;;
13230;SDS011;6681;53.254;10.398;2022-12-07T05:16:22;7.77;;;3.37;;
13230;SDS011;6681;53.254;10.398;2022-12-07T05:18:48;3.93;;;3.07;;
13230;SDS011;6681;53.254;10.398;2022-12-07T05:21:13;7.57;;;3.63;;
13230;SDS011;6681;53.254;10.398;2022-12-07T05:23:39;6.33;;;3.70;;
13230;SDS011;6681;53.254;10.398;2022-12-07T05:26:05;10.10;;;3.83;;
13230;SDS011;6681;53.254;10.398;2022-12-07T05:28:30;4.33;;;3.40;;
13230;SDS011;6681;53.254;10.398;2022-12-07T05:30:56;5.17;;;2.77;;
13230;SDS011;6681;53.254;10.398;2022-12-07T05:33:23;5.57;;;2.77;;
13230;SDS011;6681;53.254;10.398;2022-12-07T05:35:48;3.90;;;2.73;;
13230;SDS011;6681;53.254;10.398;2022-12-07T05:38:14;5.43;;;4.10;;
13230;SDS011;6681;53.254;10.398;2022-12-07T05:40:39;3.50;;;2.20;;
13230;SDS011;6681;53.254;10.398;2022-12-07T05:43:05;4.63;;;2.77;;
13230;SDS011;6681;53.254;10.398;2022-12-07T05:45:31;4.27;;;2.97;;
13230;SDS011;6681;53.254;10.398;2022-12-07T05:47:56;4.70;;;2.53;;
13230;SDS011;6681;53.254;10.398;2022-12-07T05:50:22;7.07;;;2.67;;
13230;SDS011;6681;53.254;10.398;2022-12-07T05:52:47;5.53;;;2.97;;
13230;SDS011;6681;53.254;10.398;2022-12-07T05:55:13;5.20;;;2.60;;
13230;SDS011;6681;53.254;10.398;2022-12-07T05:57:39;3.50;;;2.77;;
13230;SDS011;6681;53.254;10.398;2022-12-07T06:00:04;3.17;;;2.30;;
13230;SDS011;6681;53.254;10.398;2022-12-07T06:02:30;4.60;;;2.93;;
13230;SDS011;6681;53.254;10.398;2022-12-07T06:04:56;3.03;;;2.30;;
13230;SDS011;6681;53.254;10.398;2022-12-07T06:07:22;7.27;;;2.77;;
13230;SDS011;6681;53.254;10.398;2022-12-07T06:09:47;4.87;;;2.20;;
13230;SDS011;6681;53.254;10.398;2022-12-07T06:12:13;6.40;;;3.57;;
13230;SDS011;6681;53.254;10.398;2022-12-07T06:14:58;8.40;;;4.57;;
13230;SDS011;6681;53.254;10.398;2022-12-07T06:17:23;3.73;;;3.33;;
13230;SDS011;6681;53.254;10.398;2022-12-07T06:19:49;4.97;;;3.70;;
13230;SDS011;6681;53.254;10.398;2022-12-07T06:22:15;6.30;;;2.97;;
13230;SDS011;6681;53.254;10.398;2022-12-07T06:24:41;3.87;;;3.30;;
13230;SDS011;6681;53.254;10.398;2022-12-07T06:27:07;4.63;;;3.77;;
13230;SDS011;6681;53.254;10.398;2022-12-07T06:29:34;3.17;;;2.47;;
13230;SDS011;6681;53.254;10.398;2022-12-07T06:32:00;9.77;;;3.43;;
13230;SDS011;6681;53.254;10.398;2022-12-07T06:34:26;3.77;;;3.23;;
13230;SDS011;6681;53.254;10.398;2022-12-07T06:36:52;3.60;;;2.57;;
13230;SDS011;6681;53.254;10.398;2022-12-07T06:39:21;7.27;;;2.83;;
13230;SDS011;6681;53.254;10.398;2022-12-07T06:41:47;4.90;;;3.10;;
13230;SDS011;6681;53.254;10.398;2022-12-07T06:44:13;5.87;;;2.57;;
13230;SDS011;6681;53.254;10.398;2022-12-07T06:46:39;6.13;;;3.03;;
13230;SDS011;6681;53.254;10.398;2022-12-07T06:49:05;4.57;;;3.87;;
13230;SDS011;6681;53.254;10.398;2022-12-07T06:51:31;7.90;;;3.80;;
13230;SDS011;6681;53.254;10.398;2022-12-07T06:53:58;4.83;;;3.17;;
13230;SDS011;6681;53.254;10.398;2022-12-07T06:56:24;7.50;;;3.40;;
13230;SDS011;6681;53.254;10.398;2022-12-07T06:58:50;5.60;;;3.73;;
13230;SDS011;6681;53.254;10.398;2022-12-07T07:01:16;9.57;;;3.87;;
13230;SDS011;6681;53.254;10.398;2022-12-07T07:03:46;9.03;;;3.47;;
13230;SDS011;6681;53.254;10.398;2022-12-07T07:06:15;6.43;;;2.83;;
13230;SDS011;6681;53.254;10.398;2022-12-07T07:08:41;9.17;;;3.87;;
13230;SDS011;6681;53.254;10.398;2022-12-07T07:11:07;3.93;;;3.13;;
13230;SDS011;6681;53.254;10.398;2022-12-07T07:13:34;5.40;;;3.10;;
13230;SDS011;6681;53.254;10.398;2022-12-07T07:15:59;7.30;;;3.00;;
13230;SDS011;6681;53.254;10.398;2022-12-07T07:18:26;5.17;;;3.37;;
13230;SDS011;6681;53.254;10.398;2022-12-07T07:20:52;3.77;;;2.60;;
13230;SDS011;6681;53.254;10.398;2022-12-07T07:23:18;4.80;;;3.17;;
13230;SDS011;6681;53.254;10.398;2022-12-07T07:25:45;4.13;;;3.10;;
13230;SDS011;6681;53.254;10.398;2022-12-07T07:28:11;7.33;;;3.00;;
13230;SDS011;6681;53.254;10.398;2022-12-07T07:30:37;6.80;;;3.47;;
13230;SDS011;6681;53.254;10.398;2022-12-07T07:33:03;3.87;;;3.30;;
13230;SDS011;6681;53.254;10.398;2022-12-07T07:35:29;8.10;;;3.13;;
13230;SDS011;6681;53.254;10.398;2022-12-07T07:38:04;8.43;;;2.93;;
13230;SDS011;6681;53.254;10.398;2022-12-07T07:40:30;3.00;;;2.20;;
13230;SDS011;6681;53.254;10.398;2022-12-07T07:42:56;4.37;;;3.00;;
13230;SDS011;6681;53.254;10.398;2022-12-07T07:45:24;4.17;;;2.90;;
13230;SDS011;6681;53.254;10.398;2022-12-07T07:47:50;3.93;;;2.83;;
13230;SDS011;6681;53.254;10.398;2022-12-07T07:50:16;4.60;;;2.83;;
13230;SDS011;6681;53.254;10.398;2022-12-07T07:52:42;4.33;;;2.37;;
13230;SDS011;6681;53.254;10.398;2022-12-07T07:55:08;5.97;;;3.90;;
13230;SDS011;6681;53.254;10.398;2022-12-07T07:57:34;7.47;;;4.30;;
13230;SDS011;6681;53.254;10.398;2022-12-07T08:00:01;6.57;;;4.37;;
13230;SDS011;6681;53.254;10.398;2022-12-07T08:02:32;6.60;;;3.97;;
13230;SDS011;6681;53.254;10.398;2022-12-07T08:04:57;7.33;;;4.50;;
13230;SDS011;6681;53.254;10.398;2022-12-07T08:07:23;6.67;;;4.40;;
13230;SDS011;6681;53.254;10.398;2022-12-07T08:09:49;10.30;;;3.30;;
13230;SDS011;6681;53.254;10.398;2022-12-07T08:12:14;4.70;;;3.03;;
13230;SDS011;6681;53.254;10.398;2022-12-07T08:14:40;7.30;;;3.73;;
13230;SDS011;6681;53.254;10.398;2022-12-07T08:17:06;5.00;;;2.77;;
13230;SDS011;6681;53.254;10.398;2022-12-07T08:19:32;8.20;;;4.27;;
13230;SDS011;6681;53.254;10.398;2022-12-07T08:21:58;6.27;;;3.50;;
13230;SDS011;6681;53.254;10.398;2022-12-07T08:24:24;7.73;;;4.20;;
13230;SDS011;6681;53.254;10.398;2022-12-07T08:26:50;9.10;;;3.07;;
13230;SDS011;6681;53.254;10.398;2022-12-07T08:29:16;2.87;;;2.50;;
13230;SDS011;6681;53.254;10.398;2022-12-07T08:31:42;4.10;;;3.33;;
13230;SDS011;6681;53.254;10.398;2022-12-07T08:34:09;3.47;;;2.93;;
13230;SDS011;6681;53.254;10.398;2022-12-07T08:36:36;3.37;;;2.60;;
13230;SDS011;6681;53.254;10.398;2022-12-07T08:39:01;9.93;;;2.73;;
13230;SDS011;6681;53.254;10.398;2022-12-07T08:41:27;7.43;;;3.00;;
13230;SDS011;6681;53.254;10.398;2022-12-07T08:43:53;5.60;;;3.30;;
13230;SDS011;6681;53.254;10.398;2022-12-07T08:46:25;4.60;;;2.23;;
13230;SDS011;6681;53.254;10.398;2022-12-07T08:49:04;5.50;;;3.13;;
13230;SDS011;6681;53.254;10.398;2022-12-07T08:51:34;10.77;;;3.50;;
13230;SDS011;6681;53.254;10.398;2022-12-07T08:54:01;10.17;;;3.13;;
13230;SDS011;6681;53.254;10.398;2022-12-07T08:56:30;5.93;;;2.80;;
13230;SDS011;6681;53.254;10.398;2022-12-07T08:58:55;3.60;;;2.77;;
13230;SDS011;6681;53.254;10.398;2022-12-07T09:01:22;3.43;;;2.83;;
13230;SDS011;6681;53.254;10.398;2022-12-07T09:03:48;4.13;;;3.30;;
13230;SDS011;6681;53.254;10.398;2022-12-07T09:06:13;3.03;;;2.60;;
13230;SDS011;6681;53.254;10.398;2022-12-07T09:08:41;3.67;;;3.03;;
13230;SDS011;6681;53.254;10.398;2022-12-07T09:11:10;5.03;;;2.73;;
13230;SDS011;6681;53.254;10.398;2022-12-07T09:13:36;4.20;;;2.83;;
13230;SDS011;6681;53.254;10.398;2022-12-07T09:16:01;7.63;;;2.63;;
13230;SDS011;6681;53.254;10.398;2022-12-07T09:18:27;3.50;;;1.97;;
13230;SDS011;6681;53.254;10.398;2022-12-07T09:20:53;2.37;;;2.10;;
13230;SDS011;6681;53.254;10.398;2022-12-07T09:23:18;6.47;;;2.47;;
13230;SDS011;6681;53.254;10.398;2022-12-07T09:25:44;6.67;;;2.67;;
13230;SDS011;6681;53.254;10.398;2022-12-07T09:28:10;4.30;;;2.97;;
13230;SDS011;6681;53.254;10.398;2022-12-07T09:30:36;4.47;;;3.43;;
13230;SDS011;6681;53.254;10.398;2022-12-07T09:33:01;4.57;;;2.60;;
13230;SDS011;6681;53.254;10.398;2022-12-07T09:35:27;4.07;;;2.30;;
13230;SDS011;6681;53.254;10.398;2022-12-07T09:37:52;4.23;;;2.37;;
13230;SDS011;6681;53.254;10.398;2022-12-07T09:40:19;3.97;;;2.30;;
13230;SDS011;6681;53.254;10.398;2022-12-07T09:42:50;5.17;;;1.80;;
13230;SDS011;6681;53.254;10.398;2022-12-07T09:45:39;2.63;;;2.43;;
13230;SDS011;6681;53.254;10.398;2022-12-07T09:48:04;7.43;;;2.83;;
13230;SDS011;6681;53.254;10.398;2022-12-07T09:50:33;4.17;;;2.87;;
13230;SDS011;6681;53.254;10.398;2022-12-07T09:53:08;2.40;;;2.20;;
13230;SDS011;6681;53.254;10.398;2022-12-07T09:55:39;5.57;;;2.37;;
13230;SDS011;6681;53.254;10.398;2022-12-07T09:58:08;5.27;;;2.30;;
13230;SDS011;6681;53.254;10.398;2022-12-07T10:00:43;4.97;;;2.60;;
13230;SDS011;6681;53.254;10.398;2022-12-07T10:03:10;2.97;;;2.10;;
13230;SDS011;6681;53.254;10.398;2022-12-07T10:05:38;9.43;;;2.90;;
13230;SDS011;6681;53.254;10.398;2022-12-07T10:08:10;7.43;;;2.40;;
13230;SDS011;6681;53.254;10.398;2022-12-07T10:10:37;5.60;;;2.83;;
13230;SDS011;6681;53.254;10.398;2022-12-07T10:13:09;4.47;;;2.43;;
13230;SDS011;6681;53.254;10.398;2022-12-07T10:15:40;4.20;;;2.30;;
13230;SDS011;6681;53.254;10.398;2022-12-07T10:18:31;7.50;;;4.03;;
13230;SDS011;6681;53.254;10.398;2022-12-07T10:23:30;7.77;;;2.30;;
13230;SDS011;6681;53.254;10.398;2022-12-07T10:25:56;7.40;;;2.87;;
13230;SDS011;6681;53.254;10.398;2022-12-07T10:28:22;5.07;;;1.97;;
13230;SDS011;6681;53.254;10.398;2022-12-07T10:30:55;3.20;;;1.63;;
13230;SDS011;6681;53.254;10.398;2022-12-07T10:33:36;6.07;;;2.37;;
13230;SDS011;6681;53.254;10.398;2022-12-07T10:36:17;3.67;;;1.87;;
13230;SDS011;6681;53.254;10.398;2022-12-07T10:42:01;4.83;;;1.20;;
13230;SDS011;6681;53.254;10.398;2022-12-07T10:44:27;3.63;;;1.00;;
13230;SDS011;6681;53.254;10.398;2022-12-07T10:46:58;4.73;;;1.50;;
13230;SDS011;6681;53.254;10.398;2022-12-07T10:52:26;3.73;;;1.37;;
13230;SDS011;6681;53.254;10.398;2022-12-07T10:55:19;1.87;;;1.43;;
13230;SDS011;6681;53.254;10.398;2022-12-07T11:00:25;2.20;;;0.90;;
13230;SDS011;6681;53.254;10.398;2022-12-07T11:08:13;3.13;;;0.60;;
13230;SDS011;6681;53.254;10.398;2022-12-07T11:15:59;3.30;;;0.60;;
13230;SDS011;6681;53.254;10.398;2022-12-07T11:19:13;1.83;;;0.40;;
13230;SDS011;6681;53.254;10.398;2022-12-07T11:21:45;5.03;;;1.00;;
13230;SDS011;6681;53.254;10.398;2022-12-07T11:24:40;7.07;;;1.57;;
13230;SDS011;6681;53.254;10.398;2022-12-07T11:27:30;3.10;;;0.70;;
13230;SDS011;6681;53.254;10.398;2022-12-07T11:38:26;1.57;;;0.63;;
13230;SDS011;6681;53.254;10.398;2022-12-07T11:41:03;3.67;;;0.53;;
13230;SDS011;6681;53.254;10.398;2022-12-07T11:46:37;3.37;;;1.43;;
13230;SDS011;6681;53.254;10.398;2022-12-07T11:49:16;3.17;;;1.23;;
13230;SDS011;6681;53.254;10.398;2022-12-07T11:51:44;5.10;;;1.70;;
13230;SDS011;6681;53.254;10.398;2022-12-07T11:54:17;2.87;;;0.70;;
13230;SDS011;6681;53.254;10.398;2022-12-07T11:56:49;6.70;;;1.20;;
13230;SDS011;6681;53.254;10.398;2022-12-07T11:59:28;1.33;;;1.17;;
13230;SDS011;6681;53.254;10.398;2022-12-07T12:01:57;3.30;;;2.00;;
13230;SDS011;6681;53.254;10.398;2022-12-07T12:04:51;2.97;;;1.10;;
13230;SDS011;6681;53.254;10.398;2022-12-07T12:07:30;3.17;;;1.40;;
13230;SDS011;6681;53.254;10.398;2022-12-07T12:09:58;5.77;;;1.63;;
13230;SDS011;6681;53.254;10.398;2022-12-07T12:21:27;5.60;;;1.97;;
13230;SDS011;6681;53.254;10.398;2022-12-07T12:23:59;2.00;;;1.80;;
13230;SDS011;6681;53.254;10.398;2022-12-07T12:26:31;2.90;;;1.27;;
13230;SDS011;6681;53.254;10.398;2022-12-07T12:29:45;3.17;;;1.00;;
13230;SDS011;6681;53.254;10.398;2022-12-07T12:42:52;5.87;;;1.57;;
13230;SDS011;6681;53.254;10.398;2022-12-07T12:45:20;5.53;;;1.63;;
13230;SDS011;6681;53.254;10.398;2022-12-07T12:47:59;7.33;;;1.27;;
13230;SDS011;6681;53.254;10.398;2022-12-07T12:50:27;4.97;;;1.17;;
13230;SDS011;6681;53.254;10.398;2022-12-07T12:53:03;7.47;;;2.00;;
13230;SDS011;6681;53.254;10.398;2022-12-07T13:00:47;3.47;;;1.37;;
13230;SDS011;6681;53.254;10.398;2022-12-07T13:03:34;12.10;;;1.87;;
13230;SDS011;6681;53.254;10.398;2022-12-07T13:06:34;4.70;;;2.07;;
13230;SDS011;6681;53.254;10.398;2022-12-07T13:08:56;6.30;;;1.73;;
13230;SDS011;6681;53.254;10.398;2022-12-07T13:19:56;6.43;;;1.80;;
13230;SDS011;6681;53.254;10.398;2022-12-07T13:24:56;4.63;;;1.70;;
13230;SDS011;6681;53.254;10.398;2022-12-07T13:27:23;5.30;;;1.77;;
13230;SDS011;6681;53.254;10.398;2022-12-07T13:29:50;2.27;;;1.10;;
13230;SDS011;6681;53.254;10.398;2022-12-07T13:32:49;5.37;;;1.17;;
13230;SDS011;6681;53.254;10.398;2022-12-07T13:35:28;5.70;;;2.13;;
13230;SDS011;6681;53.254;10.398;2022-12-07T13:37:54;9.53;;;1.40;;
13230;SDS011;6681;53.254;10.398;2022-12-07T13:40:20;5.83;;;1.93;;
13230;SDS011;6681;53.254;10.398;2022-12-07T13:42:47;3.50;;;1.37;;
13230;SDS011;6681;53.254;10.398;2022-12-07T13:45:22;0.97;;;0.80;;
13230;SDS011;6681;53.254;10.398;2022-12-07T13:48:13;5.90;;;1.90;;
13230;SDS011;6681;53.254;10.398;2022-12-07T13:50:58;2.50;;;1.73;;
13230;SDS011;6681;53.254;10.398;2022-12-07T13:53:26;9.03;;;1.90;;
13230;SDS011;6681;53.254;10.398;2022-12-07T13:55:59;2.43;;;1.10;;
13230;SDS011;6681;53.254;10.398;2022-12-07T13:58:26;4.60;;;1.87;;
13230;SDS011;6681;53.254;10.398;2022-12-07T14:00:55;6.33;;;1.50;;
13230;SDS011;6681;53.254;10.398;2022-12-07T14:03:29;3.77;;;1.50;;
13230;SDS011;6681;53.254;10.398;2022-12-07T14:06:04;6.63;;;1.17;;
13230;SDS011;6681;53.254;10.398;2022-12-07T14:08:50;5.53;;;1.40;;
13230;SDS011;6681;53.254;10.398;2022-12-07T14:11:41;4.87;;;1.90;;
13230;SDS011;6681;53.254;10.398;2022-12-07T14:14:10;5.97;;;2.20;;
13230;SDS011;6681;53.254;10.398;2022-12-07T14:16:40;5.53;;;2.83;;
13230;SDS011;6681;53.254;10.398;2022-12-07T14:19:39;5.37;;;1.73;;
13230;SDS011;6681;53.254;10.398;2022-12-07T14:22:15;5.43;;;1.80;;
13230;SDS011;6681;53.254;10.398;2022-12-07T14:27:38;8.67;;;1.57;;
13230;SDS011;6681;53.254;10.398;2022-12-07T14:30:05;7.00;;;1.30;;
13230;SDS011;6681;53.254;10.398;2022-12-07T14:32:32;3.57;;;1.33;;
13230;SDS011;6681;53.254;10.398;2022-12-07T14:37:29;2.40;;;1.20;;
13230;SDS011;6681;53.254;10.398;2022-12-07T14:39:55;2.67;;;1.73;;
13230;SDS011;6681;53.254;10.398;2022-12-07T14:42:21;5.93;;;1.23;;
13230;SDS011;6681;53.254;10.398;2022-12-07T14:44:52;3.10;;;1.30;;
13230;SDS011;6681;53.254;10.398;2022-12-07T14:47:18;7.40;;;1.47;;
13230;SDS011;6681;53.254;10.398;2022-12-07T14:49:43;7.03;;;1.67;;
13230;SDS011;6681;53.254;10.398;2022-12-07T14:52:13;5.33;;;1.30;;
13230;SDS011;6681;53.254;10.398;2022-12-07T14:54:42;8.20;;;1.43;;
13230;SDS011;6681;53.254;10.398;2022-12-07T14:57:08;4.17;;;1.20;;
13230;SDS011;6681;53.254;10.398;2022-12-07T14:59:35;6.43;;;1.20;;
13230;SDS011;6681;53.254;10.398;2022-12-07T15:02:01;6.67;;;1.30;;
13230;SDS011;6681;53.254;10.398;2022-12-07T15:04:26;4.00;;;1.70;;
13230;SDS011;6681;53.254;10.398;2022-12-07T15:07:02;1.73;;;1.10;;
13230;SDS011;6681;53.254;10.398;2022-12-07T15:09:29;6.57;;;1.77;;
13230;SDS011;6681;53.254;10.398;2022-12-07T15:11:55;7.40;;;1.50;;
13230;SDS011;6681;53.254;10.398;2022-12-07T15:14:20;4.57;;;1.57;;
13230;SDS011;6681;53.254;10.398;2022-12-07T15:16:46;7.43;;;2.23;;
13230;SDS011;6681;53.254;10.398;2022-12-07T15:19:13;3.43;;;2.13;;
13230;SDS011;6681;53.254;10.398;2022-12-07T15:21:40;7.17;;;1.93;;
13230;SDS011;6681;53.254;10.398;2022-12-07T15:24:08;2.33;;;1.97;;
13230;SDS011;6681;53.254;10.398;2022-12-07T15:26:37;7.23;;;2.73;;
13230;SDS011;6681;53.254;10.398;2022-12-07T15:29:04;6.77;;;2.77;;
13230;SDS011;6681;53.254;10.398;2022-12-07T15:31:34;5.70;;;1.83;;
13230;SDS011;6681;53.254;10.398;2022-12-07T15:34:01;5.93;;;1.60;;
13230;SDS011;6681;53.254;10.398;2022-12-07T15:36:28;5.37;;;1.33;;
13230;SDS011;6681;53.254;10.398;2022-12-07T15:38:55;2.03;;;1.83;;
13230;SDS011;6681;53.254;10.398;2022-12-07T15:41:21;9.03;;;1.80;;
13230;SDS011;6681;53.254;10.398;2022-12-07T15:43:47;6.37;;;2.00;;
13230;SDS011;6681;53.254;10.398;2022-12-07T15:46:32;3.63;;;1.90;;
13230;SDS011;6681;53.254;10.398;2022-12-07T15:48:59;3.83;;;1.37;;
13230;SDS011;6681;53.254;10.398;2022-12-07T15:51:25;4.93;;;1.73;;
13230;SDS011;6681;53.254;10.398;2022-12-07T15:53:51;2.03;;;1.80;;
13230;SDS011;6681;53.254;10.398;2022-12-07T15:56:17;8.80;;;2.80;;
13230;SDS011;6681;53.254;10.398;2022-12-07T15:58:43;2.93;;;2.50;;
13230;SDS011;6681;53.254;10.398;2022-12-07T16:01:13;9.63;;;2.80;;
13230;SDS011;6681;53.254;10.398;2022-12-07T16:03:40;7.27;;;2.47;;
13230;SDS011;6681;53.254;10.398;2022-12-07T16:06:16;6.50;;;2.97;;
13230;SDS011;6681;53.254;10.398;2022-12-07T16:08:44;8.87;;;3.67;;
13230;SDS011;6681;53.254;10.398;2022-12-07T16:11:10;7.33;;;3.40;;
13230;SDS011;6681;53.254;10.398;2022-12-07T16:13:37;12.53;;;4.23;;
13230;SDS011;6681;53.254;10.398;2022-12-07T16:16:08;13.17;;;4.97;;
13230;SDS011;6681;53.254;10.398;2022-12-07T16:18:36;8.77;;;4.87;;
13230;SDS011;6681;53.254;10.398;2022-12-07T16:21:02;12.87;;;4.40;;
13230;SDS011;6681;53.254;10.398;2022-12-07T16:23:28;6.07;;;4.53;;
13230;SDS011;6681;53.254;10.398;2022-12-07T16:25:54;9.17;;;3.90;;
13230;SDS011;6681;53.254;10.398;2022-12-07T16:28:20;6.03;;;3.50;;
13230;SDS011;6681;53.254;10.398;2022-12-07T16:30:45;6.90;;;4.20;;
13230;SDS011;6681;53.254;10.398;2022-12-07T16:33:11;6.20;;;3.73;;
13230;SDS011;6681;53.254;10.398;2022-12-07T16:35:39;4.57;;;3.27;;
13230;SDS011;6681;53.254;10.398;2022-12-07T16:38:06;8.40;;;2.73;;
13230;SDS011;6681;53.254;10.398;2022-12-07T16:40:32;6.43;;;3.30;;
13230;SDS011;6681;53.254;10.398;2022-12-07T16:42:57;5.63;;;3.47;;
13230;SDS011;6681;53.254;10.398;2022-12-07T16:45:23;4.50;;;3.13;;
13230;SDS011;6681;53.254;10.398;2022-12-07T16:47:49;8.97;;;3.53;;